Terminal Aerodrome Forecast
Issued by NWS Tuscon, AZ

Home | Current Version | Previous Version | Text Only | Print | Product List | Glossary On
Versions: 1 2 3 4 5 6 7 8 9 10 11 12 13 14 15 16 17 18 19 20 21
375
FTUS45 KTWC 280908 AAA
TAFTUS
TAF AMD
KTUS 280908Z 2809/2906 24009KT P6SM SCT080 BKN120
      TEMPO 2809/2812 -TSRA BKN080CB
     FM281200 29008KT P6SM SCT100
     FM281800 30016G26KT P6SM SCT100
     FM290200 27012KT P6SM SKC=

USA.gov is the U.S. government's official web portal to all federal, state and local government web resources and services.